sensor_id;sensor_type;location;lat;lon;timestamp;P1;durP1;ratioP1;P2;durP2;ratioP2
47353;SDS011;50657;48.830;2.282;2022-08-19T00:01:18;3.40;;;2.50;;
47353;SDS011;50657;48.830;2.282;2022-08-19T00:03:45;4.53;;;1.33;;
47353;SDS011;50657;48.830;2.282;2022-08-19T00:06:13;2.83;;;1.10;;
47353;SDS011;50657;48.830;2.282;2022-08-19T00:08:40;1.95;;;1.55;;
47353;SDS011;50657;48.830;2.282;2022-08-19T00:11:10;1.92;;;1.83;;
47353;SDS011;50657;48.830;2.282;2022-08-19T00:13:37;1.40;;;0.90;;
47353;SDS011;50657;48.830;2.282;2022-08-19T00:16:04;1.42;;;0.60;;
47353;SDS011;50657;48.830;2.282;2022-08-19T00:18:32;4.57;;;1.85;;
47353;SDS011;50657;48.830;2.282;2022-08-19T00:21:00;2.08;;;1.15;;
47353;SDS011;50657;48.830;2.282;2022-08-19T00:23:28;1.02;;;1.02;;
47353;SDS011;50657;48.830;2.282;2022-08-19T00:25:55;1.10;;;1.10;;
47353;SDS011;50657;48.830;2.282;2022-08-19T00:28:23;1.67;;;1.58;;
47353;SDS011;50657;48.830;2.282;2022-08-19T00:30:50;3.17;;;1.10;;
47353;SDS011;50657;48.830;2.282;2022-08-19T00:33:18;1.42;;;1.35;;
47353;SDS011;50657;48.830;2.282;2022-08-19T00:35:45;1.73;;;1.58;;
47353;SDS011;50657;48.830;2.282;2022-08-19T00:38:12;3.85;;;0.93;;
47353;SDS011;50657;48.830;2.282;2022-08-19T00:40:40;2.08;;;1.35;;
47353;SDS011;50657;48.830;2.282;2022-08-19T00:43:11;4.07;;;1.13;;
47353;SDS011;50657;48.830;2.282;2022-08-19T00:45:41;4.35;;;1.17;;
47353;SDS011;50657;48.830;2.282;2022-08-19T00:48:09;1.33;;;1.08;;
47353;SDS011;50657;48.830;2.282;2022-08-19T00:50:36;0.90;;;0.70;;
47353;SDS011;50657;48.830;2.282;2022-08-19T00:53:08;2.13;;;1.25;;
47353;SDS011;50657;48.830;2.282;2022-08-19T00:55:36;1.23;;;1.23;;
47353;SDS011;50657;48.830;2.282;2022-08-19T00:58:06;1.95;;;0.73;;
47353;SDS011;50657;48.830;2.282;2022-08-19T01:00:34;1.05;;;1.02;;
47353;SDS011;50657;48.830;2.282;2022-08-19T01:03:04;3.10;;;1.00;;
47353;SDS011;50657;48.830;2.282;2022-08-19T01:05:33;1.60;;;0.88;;
47353;SDS011;50657;48.830;2.282;2022-08-19T01:08:03;1.70;;;1.15;;
47353;SDS011;50657;48.830;2.282;2022-08-19T01:10:32;2.53;;;0.88;;
47353;SDS011;50657;48.830;2.282;2022-08-19T01:13:02;1.88;;;0.88;;
47353;SDS011;50657;48.830;2.282;2022-08-19T01:15:31;1.33;;;0.82;;
47353;SDS011;50657;48.830;2.282;2022-08-19T01:18:01;1.88;;;0.98;;
47353;SDS011;50657;48.830;2.282;2022-08-19T01:20:33;2.83;;;1.20;;
47353;SDS011;50657;48.830;2.282;2022-08-19T01:23:02;1.48;;;0.82;;
47353;SDS011;50657;48.830;2.282;2022-08-19T01:25:31;5.00;;;0.70;;
47353;SDS011;50657;48.830;2.282;2022-08-19T01:28:01;1.48;;;1.33;;
47353;SDS011;50657;48.830;2.282;2022-08-19T01:30:31;1.70;;;0.70;;
47353;SDS011;50657;48.830;2.282;2022-08-19T01:32:59;4.55;;;0.85;;
47353;SDS011;50657;48.830;2.282;2022-08-19T01:35:30;1.33;;;0.90;;
47353;SDS011;50657;48.830;2.282;2022-08-19T01:37:59;6.72;;;1.23;;
47353;SDS011;50657;48.830;2.282;2022-08-19T01:40:30;0.50;;;0.50;;
47353;SDS011;50657;48.830;2.282;2022-08-19T01:42:58;0.90;;;0.88;;
47353;SDS011;50657;48.830;2.282;2022-08-19T01:45:26;1.27;;;0.90;;
47353;SDS011;50657;48.830;2.282;2022-08-19T01:47:55;1.80;;;0.88;;
47353;SDS011;50657;48.830;2.282;2022-08-19T01:50:22;4.82;;;0.98;;
47353;SDS011;50657;48.830;2.282;2022-08-19T01:52:50;3.40;;;1.75;;
47353;SDS011;50657;48.830;2.282;2022-08-19T01:55:17;1.17;;;0.77;;
47353;SDS011;50657;48.830;2.282;2022-08-19T01:57:48;2.20;;;1.08;;
47353;SDS011;50657;48.830;2.282;2022-08-19T02:00:20;1.05;;;0.95;;
47353;SDS011;50657;48.830;2.282;2022-08-19T02:02:50;1.05;;;0.80;;
47353;SDS011;50657;48.830;2.282;2022-08-19T02:05:17;2.17;;;1.05;;
47353;SDS011;50657;48.830;2.282;2022-08-19T02:07:46;1.75;;;0.50;;
47353;SDS011;50657;48.830;2.282;2022-08-19T02:10:19;0.80;;;0.77;;
47353;SDS011;50657;48.830;2.282;2022-08-19T02:12:49;1.83;;;0.77;;
47353;SDS011;50657;48.830;2.282;2022-08-19T02:15:17;2.33;;;0.90;;
47353;SDS011;50657;48.830;2.282;2022-08-19T02:17:45;1.25;;;1.02;;
47353;SDS011;50657;48.830;2.282;2022-08-19T02:20:13;4.28;;;1.10;;
47353;SDS011;50657;48.830;2.282;2022-08-19T02:22:41;4.78;;;1.25;;
47353;SDS011;50657;48.830;2.282;2022-08-19T02:25:08;1.90;;;1.10;;
47353;SDS011;50657;48.830;2.282;2022-08-19T02:27:36;1.08;;;0.98;;
47353;SDS011;50657;48.830;2.282;2022-08-19T02:30:05;1.38;;;0.93;;
47353;SDS011;50657;48.830;2.282;2022-08-19T02:32:35;4.05;;;0.98;;
47353;SDS011;50657;48.830;2.282;2022-08-19T02:35:02;1.95;;;1.00;;
47353;SDS011;50657;48.830;2.282;2022-08-19T02:37:29;1.25;;;0.85;;
47353;SDS011;50657;48.830;2.282;2022-08-19T02:40:13;3.30;;;1.15;;
47353;SDS011;50657;48.830;2.282;2022-08-19T02:42:43;1.25;;;0.90;;
47353;SDS011;50657;48.830;2.282;2022-08-19T02:45:12;2.95;;;1.00;;
47353;SDS011;50657;48.830;2.282;2022-08-19T02:47:40;1.85;;;0.85;;
47353;SDS011;50657;48.830;2.282;2022-08-19T02:50:08;1.98;;;1.13;;
47353;SDS011;50657;48.830;2.282;2022-08-19T02:52:35;2.35;;;1.02;;
47353;SDS011;50657;48.830;2.282;2022-08-19T02:55:03;3.13;;;1.17;;
47353;SDS011;50657;48.830;2.282;2022-08-19T02:57:31;1.08;;;1.00;;
47353;SDS011;50657;48.830;2.282;2022-08-19T02:59:59;1.60;;;0.77;;
47353;SDS011;50657;48.830;2.282;2022-08-19T03:02:28;2.85;;;1.73;;
47353;SDS011;50657;48.830;2.282;2022-08-19T03:04:55;1.83;;;1.73;;
47353;SDS011;50657;48.830;2.282;2022-08-19T03:07:22;3.35;;;1.10;;
47353;SDS011;50657;48.830;2.282;2022-08-19T03:09:49;4.38;;;1.50;;
47353;SDS011;50657;48.830;2.282;2022-08-19T03:12:16;1.10;;;1.10;;
47353;SDS011;50657;48.830;2.282;2022-08-19T03:14:43;1.42;;;1.17;;
47353;SDS011;50657;48.830;2.282;2022-08-19T03:17:11;2.78;;;0.98;;
47353;SDS011;50657;48.830;2.282;2022-08-19T03:19:40;1.90;;;1.20;;
47353;SDS011;50657;48.830;2.282;2022-08-19T03:22:08;6.35;;;0.88;;
47353;SDS011;50657;48.830;2.282;2022-08-19T03:24:35;1.80;;;1.20;;
47353;SDS011;50657;48.830;2.282;2022-08-19T03:27:03;3.70;;;1.15;;
47353;SDS011;50657;48.830;2.282;2022-08-19T03:29:31;3.35;;;1.05;;
47353;SDS011;50657;48.830;2.282;2022-08-19T03:31:58;1.77;;;0.77;;
47353;SDS011;50657;48.830;2.282;2022-08-19T03:34:28;3.65;;;0.88;;
47353;SDS011;50657;48.830;2.282;2022-08-19T03:36:59;9.18;;;1.17;;
47353;SDS011;50657;48.830;2.282;2022-08-19T03:39:30;4.57;;;1.48;;
47353;SDS011;50657;48.830;2.282;2022-08-19T03:41:57;1.77;;;0.90;;
47353;SDS011;50657;48.830;2.282;2022-08-19T03:44:25;3.00;;;1.20;;
47353;SDS011;50657;48.830;2.282;2022-08-19T03:46:53;2.63;;;1.50;;
47353;SDS011;50657;48.830;2.282;2022-08-19T03:49:21;1.60;;;1.50;;
47353;SDS011;50657;48.830;2.282;2022-08-19T03:51:49;2.22;;;1.88;;
47353;SDS011;50657;48.830;2.282;2022-08-19T03:54:20;3.58;;;1.70;;
47353;SDS011;50657;48.830;2.282;2022-08-19T03:56:49;2.17;;;1.02;;
47353;SDS011;50657;48.830;2.282;2022-08-19T03:59:19;1.08;;;0.90;;
47353;SDS011;50657;48.830;2.282;2022-08-19T04:01:51;1.65;;;1.55;;
47353;SDS011;50657;48.830;2.282;2022-08-19T04:04:18;3.33;;;1.48;;
47353;SDS011;50657;48.830;2.282;2022-08-19T04:06:46;1.20;;;0.98;;
47353;SDS011;50657;48.830;2.282;2022-08-19T04:09:14;1.65;;;0.65;;
47353;SDS011;50657;48.830;2.282;2022-08-19T04:11:44;2.83;;;0.73;;
47353;SDS011;50657;48.830;2.282;2022-08-19T04:14:14;2.60;;;0.73;;
47353;SDS011;50657;48.830;2.282;2022-08-19T04:16:43;3.40;;;1.02;;
47353;SDS011;50657;48.830;2.282;2022-08-19T04:19:11;1.77;;;0.80;;
47353;SDS011;50657;48.830;2.282;2022-08-19T04:21:39;0.55;;;0.55;;
47353;SDS011;50657;48.830;2.282;2022-08-19T04:24:06;1.48;;;0.95;;
47353;SDS011;50657;48.830;2.282;2022-08-19T04:26:36;1.67;;;0.90;;
47353;SDS011;50657;48.830;2.282;2022-08-19T04:29:07;1.75;;;0.40;;
47353;SDS011;50657;48.830;2.282;2022-08-19T04:31:36;1.55;;;0.60;;
47353;SDS011;50657;48.830;2.282;2022-08-19T04:34:04;2.75;;;1.60;;
47353;SDS011;50657;48.830;2.282;2022-08-19T04:36:34;2.00;;;0.93;;
47353;SDS011;50657;48.830;2.282;2022-08-19T04:39:04;0.65;;;0.65;;
47353;SDS011;50657;48.830;2.282;2022-08-19T04:41:33;1.58;;;0.63;;
47353;SDS011;50657;48.830;2.282;2022-08-19T04:44:20;1.55;;;0.45;;
47353;SDS011;50657;48.830;2.282;2022-08-19T04:46:47;0.45;;;0.45;;
47353;SDS011;50657;48.830;2.282;2022-08-19T04:49:16;1.58;;;0.40;;
47353;SDS011;50657;48.830;2.282;2022-08-19T04:51:45;0.63;;;0.40;;
47353;SDS011;50657;48.830;2.282;2022-08-19T04:54:14;0.50;;;0.50;;
47353;SDS011;50657;48.830;2.282;2022-08-19T04:56:42;2.00;;;0.47;;
47353;SDS011;50657;48.830;2.282;2022-08-19T04:59:10;4.78;;;0.40;;
47353;SDS011;50657;48.830;2.282;2022-08-19T05:01:38;0.82;;;0.40;;
47353;SDS011;50657;48.830;2.282;2022-08-19T05:04:06;1.55;;;0.32;;
47353;SDS011;50657;48.830;2.282;2022-08-19T05:06:33;0.93;;;0.20;;
47353;SDS011;50657;48.830;2.282;2022-08-19T05:09:01;0.88;;;0.20;;
47353;SDS011;50657;48.830;2.282;2022-08-19T05:11:29;1.65;;;0.30;;
47353;SDS011;50657;48.830;2.282;2022-08-19T05:13:58;0.73;;;0.20;;
47353;SDS011;50657;48.830;2.282;2022-08-19T05:16:26;0.20;;;0.20;;
47353;SDS011;50657;48.830;2.282;2022-08-19T05:18:55;1.73;;;0.43;;
47353;SDS011;50657;48.830;2.282;2022-08-19T05:24:25;3.35;;;0.60;;
47353;SDS011;50657;48.830;2.282;2022-08-19T05:26:52;1.67;;;0.65;;
47353;SDS011;50657;48.830;2.282;2022-08-19T05:29:22;4.97;;;0.50;;
47353;SDS011;50657;48.830;2.282;2022-08-19T05:31:51;2.08;;;0.30;;
47353;SDS011;50657;48.830;2.282;2022-08-19T05:34:21;1.42;;;0.30;;
47353;SDS011;50657;48.830;2.282;2022-08-19T05:36:51;3.13;;;0.20;;
47353;SDS011;50657;48.830;2.282;2022-08-19T05:39:23;1.38;;;0.43;;
47353;SDS011;50657;48.830;2.282;2022-08-19T05:41:51;0.50;;;0.20;;
47353;SDS011;50657;48.830;2.282;2022-08-19T05:44:19;1.05;;;0.30;;
47353;SDS011;50657;48.830;2.282;2022-08-19T05:46:47;1.08;;;0.30;;
47353;SDS011;50657;48.830;2.282;2022-08-19T05:49:18;2.17;;;0.20;;
47353;SDS011;50657;48.830;2.282;2022-08-19T05:51:48;0.40;;;0.20;;
47353;SDS011;50657;48.830;2.282;2022-08-19T05:54:15;2.60;;;0.60;;
47353;SDS011;50657;48.830;2.282;2022-08-19T05:56:43;0.93;;;0.22;;
47353;SDS011;50657;48.830;2.282;2022-08-19T05:59:13;1.95;;;0.38;;
47353;SDS011;50657;48.830;2.282;2022-08-19T06:01:42;1.85;;;0.25;;
47353;SDS011;50657;48.830;2.282;2022-08-19T06:04:11;1.95;;;0.20;;
47353;SDS011;50657;48.830;2.282;2022-08-19T06:06:40;3.30;;;0.30;;
47353;SDS011;50657;48.830;2.282;2022-08-19T06:09:07;1.00;;;0.20;;
47353;SDS011;50657;48.830;2.282;2022-08-19T06:11:36;0.63;;;0.10;;
47353;SDS011;50657;48.830;2.282;2022-08-19T06:14:06;0.88;;;0.20;;
47353;SDS011;50657;48.830;2.282;2022-08-19T06:16:36;1.38;;;0.20;;
47353;SDS011;50657;48.830;2.282;2022-08-19T06:19:05;1.38;;;0.10;;
47353;SDS011;50657;48.830;2.282;2022-08-19T06:21:35;1.98;;;0.20;;
47353;SDS011;50657;48.830;2.282;2022-08-19T06:24:05;0.63;;;0.10;;
47353;SDS011;50657;48.830;2.282;2022-08-19T06:26:34;1.08;;;0.30;;
47353;SDS011;50657;48.830;2.282;2022-08-19T06:29:03;0.82;;;0.28;;
47353;SDS011;50657;48.830;2.282;2022-08-19T06:31:32;0.20;;;0.13;;
47353;SDS011;50657;48.830;2.282;2022-08-19T06:34:00;0.45;;;0.20;;
47353;SDS011;50657;48.830;2.282;2022-08-19T06:36:29;6.03;;;0.25;;
47353;SDS011;50657;48.830;2.282;2022-08-19T06:38:59;0.73;;;0.10;;
47353;SDS011;50657;48.830;2.282;2022-08-19T06:41:29;0.20;;;0.10;;
47353;SDS011;50657;48.830;2.282;2022-08-19T06:43:56;0.17;;;0.10;;
47353;SDS011;50657;48.830;2.282;2022-08-19T06:46:24;1.20;;;0.22;;
47353;SDS011;50657;48.830;2.282;2022-08-19T06:48:51;0.52;;;0.10;;
47353;SDS011;50657;48.830;2.282;2022-08-19T06:51:20;1.48;;;0.10;;
47353;SDS011;50657;48.830;2.282;2022-08-19T06:53:49;1.23;;;0.10;;
47353;SDS011;50657;48.830;2.282;2022-08-19T06:56:19;0.80;;;0.10;;
47353;SDS011;50657;48.830;2.282;2022-08-19T06:58:49;0.38;;;0.35;;
47353;SDS011;50657;48.830;2.282;2022-08-19T07:01:18;1.95;;;0.40;;
47353;SDS011;50657;48.830;2.282;2022-08-19T07:03:46;0.45;;;0.10;;
47353;SDS011;50657;48.830;2.282;2022-08-19T07:06:14;1.98;;;0.20;;
47353;SDS011;50657;48.830;2.282;2022-08-19T07:08:45;0.43;;;0.10;;
47353;SDS011;50657;48.830;2.282;2022-08-19T07:11:14;0.10;;;0.10;;
47353;SDS011;50657;48.830;2.282;2022-08-19T07:13:44;2.83;;;0.10;;
47353;SDS011;50657;48.830;2.282;2022-08-19T07:16:16;0.25;;;0.10;;
47353;SDS011;50657;48.830;2.282;2022-08-19T07:18:45;0.43;;;0.10;;
47353;SDS011;50657;48.830;2.282;2022-08-19T07:21:14;3.25;;;0.10;;
47353;SDS011;50657;48.830;2.282;2022-08-19T07:23:43;0.57;;;0.10;;
47353;SDS011;50657;48.830;2.282;2022-08-19T07:26:12;0.30;;;0.30;;
47353;SDS011;50657;48.830;2.282;2022-08-19T07:28:41;0.28;;;0.10;;
47353;SDS011;50657;48.830;2.282;2022-08-19T07:31:10;1.67;;;0.20;;
47353;SDS011;50657;48.830;2.282;2022-08-19T07:33:40;2.00;;;0.10;;
47353;SDS011;50657;48.830;2.282;2022-08-19T07:36:08;0.43;;;0.20;;
47353;SDS011;50657;48.830;2.282;2022-08-19T07:38:38;0.20;;;0.10;;
47353;SDS011;50657;48.830;2.282;2022-08-19T07:41:08;0.85;;;0.10;;
47353;SDS011;50657;48.830;2.282;2022-08-19T07:43:36;0.60;;;0.20;;
47353;SDS011;50657;48.830;2.282;2022-08-19T07:46:04;0.68;;;0.10;;
47353;SDS011;50657;48.830;2.282;2022-08-19T07:48:33;0.13;;;0.10;;
47353;SDS011;50657;48.830;2.282;2022-08-19T07:51:02;0.30;;;0.20;;
47353;SDS011;50657;48.830;2.282;2022-08-19T07:53:32;0.20;;;0.10;;
47353;SDS011;50657;48.830;2.282;2022-08-19T07:56:00;5.45;;;0.10;;
47353;SDS011;50657;48.830;2.282;2022-08-19T07:58:30;1.15;;;0.10;;
47353;SDS011;50657;48.830;2.282;2022-08-19T08:00:59;1.38;;;0.10;;
47353;SDS011;50657;48.830;2.282;2022-08-19T08:03:27;0.10;;;0.10;;
47353;SDS011;50657;48.830;2.282;2022-08-19T08:06:10;1.75;;;0.10;;
47353;SDS011;50657;48.830;2.282;2022-08-19T08:08:52;0.98;;;0.10;;
47353;SDS011;50657;48.830;2.282;2022-08-19T08:11:37;0.20;;;0.10;;
47353;SDS011;50657;48.830;2.282;2022-08-19T08:14:05;0.80;;;0.10;;
47353;SDS011;50657;48.830;2.282;2022-08-19T08:16:33;1.33;;;0.10;;
47353;SDS011;50657;48.830;2.282;2022-08-19T08:19:02;1.38;;;0.10;;
47353;SDS011;50657;48.830;2.282;2022-08-19T08:21:32;2.53;;;0.20;;
47353;SDS011;50657;48.830;2.282;2022-08-19T08:24:00;0.28;;;0.10;;
47353;SDS011;50657;48.830;2.282;2022-08-19T08:26:27;0.10;;;0.00;;
47353;SDS011;50657;48.830;2.282;2022-08-19T08:28:54;1.00;;;0.10;;
47353;SDS011;50657;48.830;2.282;2022-08-19T08:31:21;0.80;;;0.60;;
47353;SDS011;50657;48.830;2.282;2022-08-19T08:33:48;0.38;;;0.10;;
47353;SDS011;50657;48.830;2.282;2022-08-19T08:36:16;0.30;;;0.10;;
47353;SDS011;50657;48.830;2.282;2022-08-19T08:38:44;4.05;;;0.10;;
47353;SDS011;50657;48.830;2.282;2022-08-19T08:41:13;0.82;;;0.47;;
47353;SDS011;50657;48.830;2.282;2022-08-19T08:43:49;1.55;;;0.10;;
47353;SDS011;50657;48.830;2.282;2022-08-19T08:46:19;1.65;;;0.20;;
47353;SDS011;50657;48.830;2.282;2022-08-19T08:48:53;0.68;;;0.00;;
47353;SDS011;50657;48.830;2.282;2022-08-19T08:51:32;0.10;;;0.10;;
47353;SDS011;50657;48.830;2.282;2022-08-19T08:54:06;1.55;;;0.10;;
47353;SDS011;50657;48.830;2.282;2022-08-19T08:56:37;0.20;;;0.00;;
47353;SDS011;50657;48.830;2.282;2022-08-19T08:59:05;5.50;;;0.10;;
47353;SDS011;50657;48.830;2.282;2022-08-19T09:01:37;1.42;;;0.13;;
47353;SDS011;50657;48.830;2.282;2022-08-19T09:04:04;1.35;;;0.10;;
47353;SDS011;50657;48.830;2.282;2022-08-19T09:06:35;4.05;;;0.10;;
47353;SDS011;50657;48.830;2.282;2022-08-19T09:09:13;1.95;;;0.10;;
47353;SDS011;50657;48.830;2.282;2022-08-19T09:11:50;1.38;;;0.10;;
47353;SDS011;50657;48.830;2.282;2022-08-19T09:14:31;0.28;;;0.10;;
47353;SDS011;50657;48.830;2.282;2022-08-19T09:17:02;0.52;;;0.10;;
47353;SDS011;50657;48.830;2.282;2022-08-19T09:19:33;2.47;;;0.20;;
47353;SDS011;50657;48.830;2.282;2022-08-19T09:22:01;0.10;;;0.10;;
47353;SDS011;50657;48.830;2.282;2022-08-19T09:24:29;0.95;;;0.10;;
47353;SDS011;50657;48.830;2.282;2022-08-19T09:26:56;1.25;;;0.10;;
47353;SDS011;50657;48.830;2.282;2022-08-19T09:29:23;2.08;;;0.00;;
47353;SDS011;50657;48.830;2.282;2022-08-19T09:31:50;0.77;;;0.10;;
47353;SDS011;50657;48.830;2.282;2022-08-19T09:34:18;0.85;;;0.38;;
47353;SDS011;50657;48.830;2.282;2022-08-19T09:36:46;0.30;;;0.10;;
47353;SDS011;50657;48.830;2.282;2022-08-19T09:39:14;0.20;;;0.10;;
47353;SDS011;50657;48.830;2.282;2022-08-19T09:41:43;1.45;;;0.20;;
47353;SDS011;50657;48.830;2.282;2022-08-19T09:44:10;2.47;;;0.40;;
47353;SDS011;50657;48.830;2.282;2022-08-19T09:46:37;1.23;;;0.20;;
47353;SDS011;50657;48.830;2.282;2022-08-19T09:49:04;0.60;;;0.10;;
47353;SDS011;50657;48.830;2.282;2022-08-19T09:51:32;1.10;;;0.40;;
47353;SDS011;50657;48.830;2.282;2022-08-19T09:54:00;2.72;;;0.22;;
47353;SDS011;50657;48.830;2.282;2022-08-19T09:56:29;2.17;;;0.20;;
47353;SDS011;50657;48.830;2.282;2022-08-19T09:58:58;0.10;;;0.10;;
47353;SDS011;50657;48.830;2.282;2022-08-19T10:01:28;2.30;;;0.10;;
47353;SDS011;50657;48.830;2.282;2022-08-19T10:03:57;1.48;;;0.00;;
47353;SDS011;50657;48.830;2.282;2022-08-19T10:06:26;0.82;;;0.10;;
47353;SDS011;50657;48.830;2.282;2022-08-19T10:08:57;1.00;;;0.10;;
47353;SDS011;50657;48.830;2.282;2022-08-19T10:11:24;2.13;;;0.38;;
47353;SDS011;50657;48.830;2.282;2022-08-19T10:13:51;1.13;;;0.10;;
47353;SDS011;50657;48.830;2.282;2022-08-19T10:16:21;0.10;;;0.10;;
47353;SDS011;50657;48.830;2.282;2022-08-19T10:18:50;4.38;;;0.10;;
47353;SDS011;50657;48.830;2.282;2022-08-19T10:21:19;0.90;;;0.10;;
47353;SDS011;50657;48.830;2.282;2022-08-19T10:23:51;2.45;;;0.55;;
47353;SDS011;50657;48.830;2.282;2022-08-19T10:26:22;1.10;;;0.10;;
47353;SDS011;50657;48.830;2.282;2022-08-19T10:28:50;0.10;;;0.00;;
47353;SDS011;50657;48.830;2.282;2022-08-19T10:31:20;0.10;;;0.10;;
47353;SDS011;50657;48.830;2.282;2022-08-19T10:33:49;0.10;;;0.10;;
47353;SDS011;50657;48.830;2.282;2022-08-19T10:36:23;0.20;;;0.00;;
47353;SDS011;50657;48.830;2.282;2022-08-19T10:38:52;3.63;;;0.15;;
47353;SDS011;50657;48.830;2.282;2022-08-19T10:41:23;0.17;;;0.08;;
47353;SDS011;50657;48.830;2.282;2022-08-19T10:43:51;0.52;;;0.10;;
47353;SDS011;50657;48.830;2.282;2022-08-19T10:46:21;0.10;;;0.00;;
47353;SDS011;50657;48.830;2.282;2022-08-19T10:48:50;0.10;;;0.10;;
47353;SDS011;50657;48.830;2.282;2022-08-19T10:51:17;0.52;;;0.52;;
47353;SDS011;50657;48.830;2.282;2022-08-19T10:54:03;0.10;;;0.10;;
47353;SDS011;50657;48.830;2.282;2022-08-19T10:56:30;0.30;;;0.10;;
47353;SDS011;50657;48.830;2.282;2022-08-19T10:59:16;0.10;;;0.00;;
47353;SDS011;50657;48.830;2.282;2022-08-19T11:01:47;0.28;;;0.10;;
47353;SDS011;50657;48.830;2.282;2022-08-19T11:04:14;0.10;;;0.00;;
47353;SDS011;50657;48.830;2.282;2022-08-19T11:06:43;0.10;;;0.10;;
47353;SDS011;50657;48.830;2.282;2022-08-19T11:09:12;0.52;;;0.10;;
47353;SDS011;50657;48.830;2.282;2022-08-19T11:11:41;1.90;;;0.00;;
47353;SDS011;50657;48.830;2.282;2022-08-19T11:14:09;0.35;;;0.00;;
47353;SDS011;50657;48.830;2.282;2022-08-19T11:16:38;0.17;;;0.00;;
47353;SDS011;50657;48.830;2.282;2022-08-19T11:19:09;0.60;;;0.00;;
47353;SDS011;50657;48.830;2.282;2022-08-19T11:21:37;0.20;;;0.10;;
47353;SDS011;50657;48.830;2.282;2022-08-19T11:24:07;1.65;;;0.10;;
47353;SDS011;50657;48.830;2.282;2022-08-19T11:26:36;0.03;;;0.03;;
47353;SDS011;50657;48.830;2.282;2022-08-19T11:29:04;0.00;;;0.00;;
47353;SDS011;50657;48.830;2.282;2022-08-19T11:31:36;0.85;;;0.03;;
47353;SDS011;50657;48.830;2.282;2022-08-19T11:34:07;3.22;;;0.10;;
47353;SDS011;50657;48.830;2.282;2022-08-19T11:36:38;0.00;;;0.00;;
47353;SDS011;50657;48.830;2.282;2022-08-19T11:39:08;0.10;;;0.10;;
47353;SDS011;50657;48.830;2.282;2022-08-19T11:41:36;0.47;;;0.00;;
47353;SDS011;50657;48.830;2.282;2022-08-19T11:44:03;0.10;;;0.10;;
47353;SDS011;50657;48.830;2.282;2022-08-19T11:46:33;1.15;;;0.10;;
47353;SDS011;50657;48.830;2.282;2022-08-19T11:49:01;0.00;;;0.00;;
47353;SDS011;50657;48.830;2.282;2022-08-19T11:51:31;0.00;;;0.00;;
47353;SDS011;50657;48.830;2.282;2022-08-19T11:53:59;0.03;;;0.00;;
47353;SDS011;50657;48.830;2.282;2022-08-19T11:56:27;0.20;;;0.10;;
47353;SDS011;50657;48.830;2.282;2022-08-19T11:58:54;0.10;;;0.10;;
47353;SDS011;50657;48.830;2.282;2022-08-19T12:01:23;0.38;;;0.00;;
47353;SDS011;50657;48.830;2.282;2022-08-19T12:03:52;0.60;;;0.10;;
47353;SDS011;50657;48.830;2.282;2022-08-19T12:06:22;0.10;;;0.00;;
47353;SDS011;50657;48.830;2.282;2022-08-19T12:08:55;0.20;;;0.10;;
47353;SDS011;50657;48.830;2.282;2022-08-19T12:11:22;0.00;;;0.00;;
47353;SDS011;50657;48.830;2.282;2022-08-19T12:13:50;0.00;;;0.00;;
47353;SDS011;50657;48.830;2.282;2022-08-19T12:16:19;0.10;;;0.10;;
47353;SDS011;50657;48.830;2.282;2022-08-19T12:18:48;0.15;;;0.00;;
47353;SDS011;50657;48.830;2.282;2022-08-19T12:21:17;0.20;;;0.00;;
47353;SDS011;50657;48.830;2.282;2022-08-19T12:23:46;0.75;;;0.00;;
47353;SDS011;50657;48.830;2.282;2022-08-19T12:26:16;0.00;;;0.00;;
47353;SDS011;50657;48.830;2.282;2022-08-19T12:28:44;1.35;;;0.10;;
47353;SDS011;50657;48.830;2.282;2022-08-19T12:31:13;0.10;;;0.00;;
47353;SDS011;50657;48.830;2.282;2022-08-19T12:33:41;0.10;;;0.10;;
47353;SDS011;50657;48.830;2.282;2022-08-19T12:36:09;2.25;;;0.10;;
47353;SDS011;50657;48.830;2.282;2022-08-19T12:38:38;0.10;;;0.10;;
47353;SDS011;50657;48.830;2.282;2022-08-19T12:41:08;0.10;;;0.10;;
47353;SDS011;50657;48.830;2.282;2022-08-19T12:43:38;0.25;;;0.10;;
47353;SDS011;50657;48.830;2.282;2022-08-19T12:46:07;0.10;;;0.00;;
47353;SDS011;50657;48.830;2.282;2022-08-19T12:48:35;1.48;;;0.00;;
47353;SDS011;50657;48.830;2.282;2022-08-19T12:51:05;1.10;;;0.10;;
47353;SDS011;50657;48.830;2.282;2022-08-19T12:53:34;3.63;;;0.73;;
47353;SDS011;50657;48.830;2.282;2022-08-19T12:56:02;0.55;;;0.40;;
47353;SDS011;50657;48.830;2.282;2022-08-19T12:58:30;7.38;;;0.15;;
47353;SDS011;50657;48.830;2.282;2022-08-19T13:01:01;1.50;;;0.10;;
47353;SDS011;50657;48.830;2.282;2022-08-19T13:03:33;1.13;;;0.68;;
47353;SDS011;50657;48.830;2.282;2022-08-19T13:06:00;0.65;;;0.20;;
47353;SDS011;50657;48.830;2.282;2022-08-19T13:08:27;1.52;;;0.10;;
47353;SDS011;50657;48.830;2.282;2022-08-19T13:10:54;3.30;;;0.30;;
47353;SDS011;50657;48.830;2.282;2022-08-19T13:13:21;1.65;;;0.10;;
47353;SDS011;50657;48.830;2.282;2022-08-19T13:15:50;0.28;;;0.10;;
47353;SDS011;50657;48.830;2.282;2022-08-19T13:18:19;0.47;;;0.10;;
47353;SDS011;50657;48.830;2.282;2022-08-19T13:20:46;0.35;;;0.32;;
47353;SDS011;50657;48.830;2.282;2022-08-19T13:23:13;0.00;;;0.00;;
47353;SDS011;50657;48.830;2.282;2022-08-19T13:25:40;3.03;;;0.22;;
47353;SDS011;50657;48.830;2.282;2022-08-19T13:28:07;1.55;;;0.10;;
47353;SDS011;50657;48.830;2.282;2022-08-19T13:30:34;1.25;;;0.10;;
47353;SDS011;50657;48.830;2.282;2022-08-19T13:33:20;4.78;;;0.10;;
47353;SDS011;50657;48.830;2.282;2022-08-19T13:35:48;0.57;;;0.10;;
47353;SDS011;50657;48.830;2.282;2022-08-19T13:38:21;1.85;;;0.08;;
47353;SDS011;50657;48.830;2.282;2022-08-19T13:40:50;2.63;;;0.00;;
47353;SDS011;50657;48.830;2.282;2022-08-19T13:43:19;0.47;;;0.00;;
47353;SDS011;50657;48.830;2.282;2022-08-19T13:45:47;1.75;;;0.10;;
47353;SDS011;50657;48.830;2.282;2022-08-19T13:48:14;1.00;;;0.10;;
47353;SDS011;50657;48.830;2.282;2022-08-19T13:50:45;0.55;;;0.10;;
47353;SDS011;50657;48.830;2.282;2022-08-19T13:53:13;0.20;;;0.05;;
47353;SDS011;50657;48.830;2.282;2022-08-19T13:55:41;0.57;;;0.57;;
47353;SDS011;50657;48.830;2.282;2022-08-19T13:58:09;0.47;;;0.00;;
47353;SDS011;50657;48.830;2.282;2022-08-19T14:00:40;0.82;;;0.05;;
47353;SDS011;50657;48.830;2.282;2022-08-19T14:03:09;1.38;;;0.00;;
47353;SDS011;50657;48.830;2.282;2022-08-19T14:05:36;1.15;;;0.15;;
47353;SDS011;50657;48.830;2.282;2022-08-19T14:08:04;1.48;;;0.10;;
47353;SDS011;50657;48.830;2.282;2022-08-19T14:10:32;1.85;;;0.10;;
47353;SDS011;50657;48.830;2.282;2022-08-19T14:12:59;1.08;;;0.10;;
47353;SDS011;50657;48.830;2.282;2022-08-19T14:15:28;3.63;;;0.17;;
47353;SDS011;50657;48.830;2.282;2022-08-19T14:17:56;0.00;;;0.00;;
47353;SDS011;50657;48.830;2.282;2022-08-19T14:20:23;0.57;;;0.10;;
47353;SDS011;50657;48.830;2.282;2022-08-19T14:22:50;0.10;;;0.10;;
47353;SDS011;50657;48.830;2.282;2022-08-19T14:25:20;0.00;;;0.00;;
47353;SDS011;50657;48.830;2.282;2022-08-19T14:27:50;0.03;;;0.00;;
47353;SDS011;50657;48.830;2.282;2022-08-19T14:30:19;0.55;;;0.10;;
47353;SDS011;50657;48.830;2.282;2022-08-19T14:32:47;2.80;;;0.10;;
47353;SDS011;50657;48.830;2.282;2022-08-19T14:35:15;0.95;;;0.10;;
47353;SDS011;50657;48.830;2.282;2022-08-19T14:37:43;0.80;;;0.10;;
47353;SDS011;50657;48.830;2.282;2022-08-19T14:40:12;0.10;;;0.10;;
47353;SDS011;50657;48.830;2.282;2022-08-19T14:42:41;0.20;;;0.10;;
47353;SDS011;50657;48.830;2.282;2022-08-19T14:45:08;0.30;;;0.10;;
47353;SDS011;50657;48.830;2.282;2022-08-19T14:47:38;0.10;;;0.10;;
47353;SDS011;50657;48.830;2.282;2022-08-19T14:50:05;1.63;;;0.10;;
47353;SDS011;50657;48.830;2.282;2022-08-19T14:52:33;1.05;;;0.10;;
47353;SDS011;50657;48.830;2.282;2022-08-19T14:55:01;0.73;;;0.10;;
47353;SDS011;50657;48.830;2.282;2022-08-19T14:57:28;0.32;;;0.10;;
47353;SDS011;50657;48.830;2.282;2022-08-19T14:59:58;0.68;;;0.10;;
47353;SDS011;50657;48.830;2.282;2022-08-19T15:02:25;0.50;;;0.10;;